createdAt,value
2018-02-20T00:04:59.812Z,0.80
2018-02-20T00:07:27.872Z,0.80
2018-02-20T00:09:55.410Z,0.80
2018-02-20T00:12:23.736Z,0.70
2018-02-20T00:14:51.253Z,0.70
2018-02-20T00:17:19.561Z,0.60
2018-02-20T00:19:47.196Z,0.60
2018-02-20T00:22:15.801Z,0.60
2018-02-20T00:24:43.465Z,0.50
2018-02-20T00:27:11.515Z,0.50
2018-02-20T00:29:39.108Z,0.40
2018-02-20T00:32:06.682Z,0.30
2018-02-20T00:34:34.240Z,0.30
2018-02-20T00:37:01.765Z,0.30
2018-02-20T00:39:29.295Z,0.20
2018-02-20T00:41:57.626Z,0.10
2018-02-20T00:44:25.154Z,0.10
2018-02-20T00:46:52.688Z,0.10
2018-02-20T00:49:20.265Z,0.00
2018-02-20T00:51:47.847Z,-0.10
2018-02-20T00:54:15.521Z,-0.10
2018-02-20T00:56:43.136Z,-0.10
2018-02-20T00:59:10.948Z,-0.10
2018-02-20T01:01:38.632Z,0.00
2018-02-20T01:04:06.205Z,0.00
2018-02-20T01:06:33.737Z,0.00
2018-02-20T01:09:01.281Z,-0.10
2018-02-20T01:11:29.079Z,-0.10
2018-02-20T01:13:56.604Z,-0.20
2018-02-20T01:16:24.134Z,-0.30
2018-02-20T01:18:52.532Z,-0.30
2018-02-20T01:21:20.119Z,-0.30
2018-02-20T01:23:47.749Z,-0.20
2018-02-20T01:26:15.721Z,-0.30
2018-02-20T01:28:43.313Z,-0.20
2018-02-20T01:31:11.867Z,-0.30
2018-02-20T01:33:39.501Z,-0.30
2018-02-20T01:36:07.214Z,-0.30
2018-02-20T01:38:34.783Z,-0.30
2018-02-20T01:41:02.333Z,-0.30
2018-02-20T01:43:29.894Z,-0.30
2018-02-20T01:45:57.429Z,-0.40
2018-02-20T01:48:24.976Z,-0.60
2018-02-20T01:51:04.417Z,-0.80
2018-02-20T01:53:32.736Z,-1.10
2018-02-20T01:56:00.270Z,-1.10
2018-02-20T01:58:27.801Z,-1.10
2018-02-20T02:00:56.136Z,-1.20
2018-02-20T02:03:24.057Z,-1.20
2018-02-20T02:05:51.617Z,-1.30
2018-02-20T02:08:20.110Z,-1.50
2018-02-20T02:10:47.998Z,-1.50
2018-02-20T02:13:15.608Z,-1.50
2018-02-20T02:15:44.082Z,-1.70
2018-02-20T02:18:11.845Z,-1.70
2018-02-20T02:20:39.632Z,-1.70
2018-02-20T02:23:08.744Z,-1.80
2018-02-20T02:25:36.334Z,-1.80
2018-02-20T02:28:03.925Z,-1.80
2018-02-20T02:30:31.717Z,-1.80
2018-02-20T02:32:59.246Z,-1.90
2018-02-20T02:35:26.779Z,-2.10
2018-02-20T02:37:54.321Z,-2.00
2018-02-20T02:40:21.897Z,-2.00
2018-02-20T02:42:49.819Z,-2.10
2018-02-20T02:45:18.205Z,-2.00
2018-02-20T02:47:46.585Z,-2.00
2018-02-20T02:50:15.009Z,-2.20
2018-02-20T02:52:42.990Z,-2.20
2018-02-20T02:55:10.742Z,-2.30
2018-02-20T02:57:38.661Z,-2.30
2018-02-20T03:00:07.042Z,-2.40
2018-02-20T03:02:35.348Z,-2.40
2018-02-20T03:05:02.876Z,-2.40
2018-02-20T03:07:30.413Z,-2.40
2018-02-20T03:09:57.948Z,-2.50
2018-02-20T03:12:25.489Z,-2.50
2018-02-20T03:14:53.037Z,-2.60
2018-02-20T03:17:21.377Z,-2.70
2018-02-20T03:19:49.106Z,-2.70
2018-02-20T03:22:16.784Z,-2.80
2018-02-20T03:24:44.452Z,-2.50
2018-02-20T03:27:12.300Z,-2.70
2018-02-20T03:29:40.489Z,-2.60
2018-02-20T03:32:09.520Z,-2.50
2018-02-20T03:34:38.260Z,-2.80
2018-02-20T03:37:07.353Z,-2.70
2018-02-20T03:39:35.721Z,-2.70
2018-02-20T03:42:03.292Z,-2.80
2018-02-20T03:44:30.822Z,-2.80
2018-02-20T03:46:59.135Z,-2.60
2018-02-20T03:49:26.669Z,-2.60
2018-02-20T03:51:54.270Z,-2.80
2018-02-20T03:54:21.893Z,-2.90
2018-02-20T03:56:49.590Z,-3.00
2018-02-20T03:59:17.264Z,-3.10
2018-02-20T04:01:44.903Z,-3.10
2018-02-20T04:04:13.075Z,-3.10
2018-02-20T04:06:40.838Z,-3.00
2018-02-20T04:09:09.423Z,-2.50
2018-02-20T04:11:37.082Z,-2.50
2018-02-20T04:14:05.444Z,-2.10
2018-02-20T04:16:32.997Z,-2.10
2018-02-20T04:19:01.296Z,-1.90
2018-02-20T04:21:28.835Z,-1.90
2018-02-20T04:23:57.144Z,-1.80
2018-02-20T04:26:25.211Z,-1.80
2018-02-20T04:28:53.046Z,-1.80
2018-02-20T04:31:21.407Z,-1.90
2018-02-20T04:33:49.120Z,-1.90
2018-02-20T04:36:16.761Z,-1.90
2018-02-20T04:38:44.363Z,-2.00
2018-02-20T04:41:13.977Z,-2.50
2018-02-20T04:43:42.798Z,-2.50
2018-02-20T04:46:11.324Z,-2.90
2018-02-20T04:48:39.104Z,-2.90
2018-02-20T04:51:06.689Z,-3.00
2018-02-20T04:53:35.025Z,-2.90
2018-02-20T04:56:02.578Z,-3.00
2018-02-20T04:58:30.117Z,-3.00
2018-02-20T05:00:58.429Z,-3.10
2018-02-20T05:03:26.294Z,-3.10
2018-02-20T05:05:54.005Z,-3.20
2018-02-20T05:08:21.567Z,-3.20
2018-02-20T05:10:49.874Z,-3.40
2018-02-20T05:13:17.565Z,-3.40
2018-02-20T05:15:45.171Z,-3.50
2018-02-20T05:18:13.688Z,-3.50
2018-02-20T05:20:41.924Z,-3.60
2018-02-20T05:23:09.677Z,-3.50
2018-02-20T05:25:37.417Z,-3.50
2018-02-20T05:28:04.977Z,-3.40
2018-02-20T05:30:32.616Z,-3.30
2018-02-20T05:33:00.699Z,-3.50
2018-02-20T05:35:29.061Z,-3.60
2018-02-20T05:37:56.596Z,-3.60
2018-02-20T05:40:24.910Z,-3.70
2018-02-20T05:42:52.458Z,-3.60
2018-02-20T05:45:19.987Z,-3.70
2018-02-20T05:47:48.613Z,-3.60
2018-02-20T05:50:16.588Z,-3.60
2018-02-20T05:52:44.867Z,-3.60
2018-02-20T05:55:12.498Z,-3.50
2018-02-20T05:57:40.257Z,-3.60
2018-02-20T06:00:07.892Z,-3.60
2018-02-20T06:02:36.204Z,-3.70
2018-02-20T06:05:04.081Z,-3.70
2018-02-20T06:07:32.162Z,-3.70
2018-02-20T06:09:59.836Z,-3.60
2018-02-20T06:12:28.237Z,-3.70
2018-02-20T06:14:57.290Z,-3.70
2018-02-20T06:17:25.092Z,-3.70
2018-02-20T06:19:52.632Z,-3.70
2018-02-20T06:22:20.158Z,-3.50
2018-02-20T06:24:48.486Z,-3.30
2018-02-20T06:27:16.163Z,-3.40
2018-02-20T06:29:44.718Z,-3.40
2018-02-20T06:32:12.507Z,-3.40
2018-02-20T06:34:40.350Z,-3.30
2018-02-20T06:37:08.111Z,-3.40
2018-02-20T06:39:35.758Z,-3.50
2018-02-20T06:42:03.348Z,-3.50
2018-02-20T06:44:30.872Z,-3.60
2018-02-20T06:46:58.420Z,-3.50
2018-02-20T06:49:26.709Z,-3.40
2018-02-20T06:51:54.269Z,-3.40
2018-02-20T06:54:21.853Z,-3.50
2018-02-20T06:56:49.812Z,-3.40
2018-02-20T06:59:17.693Z,-3.30
2018-02-20T07:01:45.274Z,-3.30
2018-02-20T07:04:12.896Z,-3.20
2018-02-20T07:06:40.446Z,-3.20
2018-02-20T07:09:09.081Z,-3.00
2018-02-20T07:11:36.737Z,-3.00
2018-02-20T07:14:04.271Z,-2.90
2018-02-20T07:16:33.169Z,-2.80
2018-02-20T07:19:00.697Z,-2.80
2018-02-20T07:21:29.024Z,-2.80
2018-02-20T07:23:56.673Z,-2.80
2018-02-20T07:26:24.544Z,-2.80
2018-02-20T07:28:52.247Z,-2.70
2018-02-20T07:31:20.686Z,-2.30
2018-02-20T07:33:48.437Z,-2.30
2018-02-20T07:36:16.117Z,-1.90
2018-02-20T07:38:43.977Z,-1.60
2018-02-20T07:41:12.151Z,-1.30
2018-02-20T07:43:40.030Z,-0.90
2018-02-20T07:46:07.685Z,-0.60
2018-02-20T07:48:35.323Z,-0.10
2018-02-20T07:51:02.938Z,0.60
2018-02-20T07:53:30.475Z,1.20
2018-02-20T07:55:58.009Z,1.90
2018-02-20T07:58:25.542Z,2.90
2018-02-20T08:00:53.859Z,3.30
2018-02-20T08:03:21.661Z,3.30
2018-02-20T08:05:50.502Z,2.60
2018-02-20T08:08:18.384Z,2.60
2018-02-20T08:10:46.106Z,2.40
2018-02-20T08:13:14.633Z,2.00
2018-02-20T08:15:42.269Z,2.00
2018-02-20T08:18:09.830Z,2.20
2018-02-20T08:20:38.301Z,2.30
2018-02-20T08:23:05.886Z,2.30
2018-02-20T08:25:33.442Z,2.20
2018-02-20T08:28:00.967Z,2.10
2018-02-20T08:30:28.505Z,2.10
2018-02-20T08:32:56.030Z,2.20
2018-02-20T08:35:23.570Z,2.20
2018-02-20T08:37:51.269Z,2.30
2018-02-20T08:40:19.224Z,2.40
2018-02-20T08:42:47.300Z,2.50
2018-02-20T08:45:14.877Z,2.60
2018-02-20T08:47:42.826Z,2.70
2018-02-20T08:50:10.874Z,2.80
2018-02-20T08:52:39.281Z,3.20
2018-02-20T08:55:06.818Z,3.20
2018-02-20T08:57:34.472Z,3.40
2018-02-20T09:00:02.890Z,3.20
2018-02-20T09:02:30.434Z,3.20
2018-02-20T09:04:57.965Z,3.20
2018-02-20T09:07:26.254Z,3.30
2018-02-20T09:09:53.860Z,3.30
2018-02-20T09:12:21.530Z,3.20
2018-02-20T09:14:49.111Z,3.20
2018-02-20T09:17:16.797Z,3.00
2018-02-20T09:19:44.568Z,3.00
2018-02-20T09:22:12.252Z,3.00
2018-02-20T09:24:39.793Z,2.90
2018-02-20T09:27:07.370Z,3.20
2018-02-20T09:29:34.905Z,3.40
2018-02-20T09:32:03.312Z,4.00
2018-02-20T09:34:30.856Z,4.00
2018-02-20T09:36:58.389Z,4.50
2018-02-20T09:39:26.689Z,4.60
2018-02-20T09:41:54.220Z,4.60
2018-02-20T09:44:21.796Z,4.70
2018-02-20T09:46:50.126Z,4.90
2018-02-20T09:49:18.716Z,5.20
2018-02-20T09:51:46.381Z,5.20
2018-02-20T09:54:14.164Z,5.30
2018-02-20T09:56:42.583Z,5.40
2018-02-20T09:59:10.117Z,5.40
2018-02-20T10:01:38.500Z,5.40
2018-02-20T10:04:06.915Z,5.10
2018-02-20T10:06:34.577Z,5.10
2018-02-20T10:09:02.128Z,4.90
2018-02-20T10:11:29.652Z,4.90
2018-02-20T10:13:57.196Z,5.10
2018-02-20T10:16:24.724Z,5.10
2018-02-20T10:18:52.285Z,5.10
2018-02-20T10:21:20.094Z,5.30
2018-02-20T10:23:47.907Z,5.10
2018-02-20T10:26:15.493Z,5.00
2018-02-20T10:28:44.096Z,5.10
2018-02-20T10:31:11.636Z,5.00
2018-02-20T10:33:39.954Z,5.30
2018-02-20T10:36:08.665Z,5.10
2018-02-20T10:38:36.248Z,5.10
2018-02-20T10:41:03.782Z,5.20
2018-02-20T10:43:31.317Z,5.30
2018-02-20T10:45:59.599Z,5.80
2018-02-20T10:48:27.901Z,5.50
2018-02-20T10:50:55.418Z,5.50
2018-02-20T10:53:24.503Z,5.10
2018-02-20T10:55:52.241Z,5.10
2018-02-20T10:58:19.800Z,5.30
2018-02-20T11:00:47.848Z,5.40
2018-02-20T11:03:15.497Z,6.10
2018-02-20T11:05:43.305Z,6.60
2018-02-20T11:08:10.836Z,6.60
2018-02-20T11:10:38.426Z,6.40
2018-02-20T11:13:06.126Z,6.80
2018-02-20T11:15:33.698Z,6.70
2018-02-20T11:20:36.003Z,6.90
2018-02-20T11:23:03.948Z,6.90
2018-02-20T11:25:31.496Z,6.90
2018-02-20T11:27:59.027Z,6.70
2018-02-20T11:30:26.578Z,6.50
2018-02-20T11:32:54.186Z,6.30
2018-02-20T11:35:22.868Z,5.80
2018-02-20T11:37:50.392Z,5.80
2018-02-20T11:40:18.128Z,6.20
2018-02-20T11:42:45.717Z,6.10
2018-02-20T11:45:13.698Z,6.40
2018-02-20T11:47:41.258Z,6.50
2018-02-20T11:50:08.783Z,6.20
2018-02-20T11:52:36.339Z,6.10
2018-02-20T11:55:04.704Z,6.20
2018-02-20T11:57:32.988Z,6.30
2018-02-20T12:00:00.592Z,6.30
2018-02-20T12:02:28.100Z,6.10
2018-02-20T12:04:56.456Z,6.20
2018-02-20T12:07:24.041Z,6.20
2018-02-20T12:09:51.730Z,6.30
2018-02-20T12:12:19.392Z,6.40
2018-02-20T12:14:46.938Z,6.30
2018-02-20T12:17:14.715Z,6.30
2018-02-20T12:19:42.264Z,6.30
2018-02-20T12:22:10.127Z,6.60
2018-02-20T12:24:37.651Z,6.70
2018-02-20T12:27:05.497Z,6.90
2018-02-20T12:29:33.248Z,6.80
2018-02-20T12:32:00.769Z,6.80
2018-02-20T12:34:28.433Z,6.70
2018-02-20T12:36:56.077Z,6.50
2018-02-20T12:39:24.431Z,6.60
2018-02-20T12:41:51.965Z,6.60
2018-02-20T12:44:19.569Z,6.60
2018-02-20T12:46:48.157Z,6.60
2018-02-20T12:49:15.761Z,6.60
2018-02-20T12:51:44.791Z,6.40
2018-02-20T12:54:13.336Z,6.60
2018-02-20T12:56:41.713Z,6.70
2018-02-20T12:59:09.284Z,6.60
2018-02-20T13:01:36.868Z,6.90
2018-02-20T13:04:05.177Z,6.90
2018-02-20T13:06:33.493Z,7.30
2018-02-20T13:09:01.086Z,7.20
2018-02-20T13:11:28.771Z,7.30
2018-02-20T13:13:57.080Z,7.70
2018-02-20T13:16:24.753Z,7.70
2018-02-20T13:18:52.419Z,7.50
2018-02-20T13:21:20.031Z,7.40
2018-02-20T13:23:47.648Z,7.20
2018-02-20T13:26:15.271Z,7.40
2018-02-20T13:28:43.598Z,7.60
2018-02-20T13:31:11.182Z,7.60
2018-02-20T13:33:38.742Z,7.30
2018-02-20T13:36:06.288Z,7.50
2018-02-20T13:38:33.829Z,7.50
2018-02-20T13:41:01.356Z,7.60
2018-02-20T13:43:28.925Z,7.70
2018-02-20T13:45:56.448Z,7.30
2018-02-20T13:48:24.052Z,7.30
2018-02-20T13:50:51.621Z,7.00
2018-02-20T13:53:19.554Z,7.20
2018-02-20T13:55:47.952Z,7.60
2018-02-20T13:58:16.318Z,7.60
2018-02-20T14:00:45.088Z,7.60
2018-02-20T14:03:14.755Z,7.40
2018-02-20T14:05:43.232Z,7.40
2018-02-20T14:08:10.856Z,7.30
2018-02-20T14:10:39.162Z,6.80
2018-02-20T14:13:06.725Z,6.80
2018-02-20T14:15:34.996Z,6.50
2018-02-20T14:18:02.533Z,6.50
2018-02-20T14:20:30.837Z,6.20
2018-02-20T14:22:58.377Z,6.20
2018-02-20T14:25:27.816Z,6.40
2018-02-20T14:27:55.366Z,6.30
2018-02-20T14:30:23.031Z,6.30
2018-02-20T14:32:50.582Z,6.20
2018-02-20T14:35:18.229Z,6.40
2018-02-20T14:37:45.818Z,6.40
2018-02-20T14:40:14.095Z,6.40
2018-02-20T14:42:41.627Z,6.40
2018-02-20T14:45:09.201Z,6.20
2018-02-20T14:47:36.738Z,6.00
2018-02-20T14:50:05.057Z,5.90
2018-02-20T14:52:32.594Z,5.80
2018-02-20T14:55:00.146Z,5.80
2018-02-20T14:57:27.697Z,5.80
2018-02-20T14:59:55.279Z,5.70
2018-02-20T15:02:22.852Z,5.70
2018-02-20T15:04:50.628Z,5.70
2018-02-20T15:07:18.205Z,5.50
2018-02-20T15:09:46.554Z,5.30
2018-02-20T15:12:14.826Z,5.30
2018-02-20T15:14:42.443Z,5.20
2018-02-20T15:17:10.153Z,5.20
2018-02-20T15:19:37.693Z,5.20
2018-02-20T15:22:05.234Z,5.20
2018-02-20T15:24:33.555Z,5.10
2018-02-20T15:27:01.105Z,5.10
2018-02-20T15:29:28.643Z,5.00
2018-02-20T15:31:56.948Z,4.90
2018-02-20T15:34:24.469Z,4.90
2018-02-20T15:36:52.790Z,5.00
2018-02-20T15:39:20.410Z,5.00
2018-02-20T15:41:48.799Z,5.00
2018-02-20T15:44:16.379Z,4.90
2018-02-20T15:46:43.980Z,4.80
2018-02-20T15:49:11.632Z,4.80
2018-02-20T15:51:39.269Z,4.90
2018-02-20T15:54:06.805Z,5.00
2018-02-20T15:56:35.107Z,5.00
2018-02-20T15:59:02.657Z,4.90
2018-02-20T16:01:30.193Z,4.90
2018-02-20T16:03:58.929Z,4.90
2018-02-20T16:06:26.453Z,4.90
2018-02-20T16:08:53.979Z,4.90
2018-02-20T16:11:21.521Z,4.80
2018-02-20T16:13:49.234Z,4.70
2018-02-20T16:16:17.731Z,4.70
2018-02-20T16:18:45.333Z,4.70
2018-02-20T16:21:13.513Z,4.60
2018-02-20T16:23:41.062Z,4.60
2018-02-20T16:26:08.631Z,4.50
2018-02-20T16:28:36.168Z,4.50
2018-02-20T16:31:03.736Z,4.50
2018-02-20T16:33:31.409Z,4.40
2018-02-20T16:35:58.930Z,4.40
2018-02-20T16:38:26.679Z,4.30
2018-02-20T16:40:54.204Z,4.20
2018-02-20T16:43:21.757Z,4.20
2018-02-20T16:45:49.345Z,4.10
2018-02-20T16:48:17.746Z,4.00
2018-02-20T16:50:45.489Z,4.00
2018-02-20T16:53:13.282Z,3.90
2018-02-20T16:55:40.902Z,3.80
2018-02-20T16:58:08.492Z,3.80
2018-02-20T17:00:36.050Z,3.70
2018-02-20T17:03:03.609Z,3.70
2018-02-20T17:05:32.165Z,3.60
2018-02-20T17:08:00.781Z,3.60
2018-02-20T17:10:28.330Z,3.50
2018-02-20T17:12:56.820Z,3.40
2018-02-20T17:15:24.509Z,3.40
2018-02-20T17:17:52.185Z,3.40
2018-02-20T17:20:19.739Z,3.40
2018-02-20T17:22:47.388Z,3.30
2018-02-20T17:25:15.154Z,3.30
2018-02-20T17:27:42.907Z,3.20
2018-02-20T17:30:10.465Z,3.20
2018-02-20T17:32:37.985Z,3.20
2018-02-20T17:35:06.303Z,3.20
2018-02-20T17:37:33.849Z,3.20
2018-02-20T17:40:02.171Z,3.20
2018-02-20T17:42:29.794Z,3.10
2018-02-20T17:44:57.317Z,3.10
2018-02-20T17:47:24.858Z,3.10
2018-02-20T17:49:53.113Z,3.10
2018-02-20T17:52:20.797Z,3.00
2018-02-20T17:54:48.554Z,3.00
2018-02-20T17:57:16.395Z,3.00
2018-02-20T17:59:44.070Z,3.00
2018-02-20T18:02:12.141Z,3.00
2018-02-20T18:04:39.751Z,3.00
2018-02-20T18:07:08.068Z,2.90
2018-02-20T18:09:35.665Z,2.90
2018-02-20T18:12:03.301Z,3.00
2018-02-20T18:14:31.751Z,2.90
2018-02-20T18:17:00.029Z,2.90
2018-02-20T18:19:28.327Z,2.80
2018-02-20T18:21:56.549Z,2.80
2018-02-20T18:24:24.072Z,2.80
2018-02-20T18:26:51.638Z,2.70
2018-02-20T18:29:19.292Z,2.70
2018-02-20T18:31:48.409Z,2.70
2018-02-20T18:34:17.073Z,2.60
2018-02-20T18:36:44.754Z,2.50
2018-02-20T18:39:13.016Z,2.40
2018-02-20T18:41:40.904Z,2.40
2018-02-20T18:44:08.648Z,2.20
2018-02-20T18:46:36.188Z,2.10
2018-02-20T18:49:03.744Z,2.00
2018-02-20T18:51:31.335Z,1.90
2018-02-20T18:53:58.862Z,1.80
2018-02-20T18:56:27.541Z,1.70
2018-02-20T18:58:56.004Z,1.70
2018-02-20T19:01:24.426Z,1.70
2018-02-20T19:03:52.021Z,1.70
2018-02-20T19:06:19.656Z,1.60
2018-02-20T19:08:47.294Z,1.60
2018-02-20T19:11:16.256Z,1.50
2018-02-20T19:13:45.115Z,1.50
2018-02-20T19:16:12.794Z,1.50
2018-02-20T19:18:40.525Z,1.50
2018-02-20T19:21:08.153Z,1.50
2018-02-20T19:23:36.478Z,1.50
2018-02-20T19:26:04.041Z,1.50
2018-02-20T19:28:31.622Z,1.40
2018-02-20T19:31:00.687Z,1.40
2018-02-20T19:33:33.634Z,1.40
2018-02-20T19:36:01.374Z,1.40
2018-02-20T19:38:28.913Z,1.30
2018-02-20T19:40:57.553Z,1.30
2018-02-20T19:43:25.856Z,1.10
2018-02-20T19:45:53.376Z,1.10
2018-02-20T19:48:21.808Z,1.10
2018-02-20T19:50:49.458Z,1.10
2018-02-20T19:53:18.565Z,1.10
2018-02-20T19:55:47.138Z,1.10
2018-02-20T19:58:15.016Z,1.00
2018-02-20T20:00:42.772Z,1.10
2018-02-20T20:03:11.123Z,1.00
2018-02-20T20:05:39.442Z,1.00
2018-02-20T20:08:07.081Z,1.00
2018-02-20T20:10:34.725Z,0.90
2018-02-20T20:13:02.258Z,0.90
2018-02-20T20:15:29.814Z,0.90
2018-02-20T20:17:58.322Z,0.70
2018-02-20T20:20:25.852Z,0.70
2018-02-20T20:22:54.157Z,0.70
2018-02-20T20:25:21.869Z,0.70
2018-02-20T20:27:49.423Z,0.70
2018-02-20T20:30:16.973Z,0.60
2018-02-20T20:32:44.539Z,0.60
2018-02-20T20:35:12.629Z,0.60
2018-02-20T20:37:40.364Z,0.50
2018-02-20T20:40:08.096Z,0.30
2018-02-20T20:42:35.677Z,0.30
2018-02-20T20:45:03.222Z,0.20
2018-02-20T20:47:31.508Z,0.10
2018-02-20T20:49:59.147Z,0.10
2018-02-20T20:52:27.440Z,0.10
2018-02-20T20:54:55.338Z,0.10
2018-02-20T20:57:23.105Z,0.10
2018-02-20T20:59:51.257Z,0.10
2018-02-20T21:02:19.164Z,0.10
2018-02-20T21:04:46.739Z,0.20
2018-02-20T21:07:14.277Z,0.10
2018-02-20T21:09:42.470Z,0.20
2018-02-20T21:12:10.345Z,0.10
2018-02-20T21:14:37.892Z,0.10
2018-02-20T21:17:05.417Z,0.00
2018-02-20T21:19:32.949Z,-0.10
2018-02-20T21:22:01.273Z,-0.20
2018-02-20T21:24:29.029Z,-0.20
2018-02-20T21:26:56.589Z,-0.20
2018-02-20T21:29:24.268Z,-0.30
2018-02-20T21:31:51.921Z,-0.40
2018-02-20T21:34:20.195Z,-0.40
2018-02-20T21:36:49.195Z,-0.30
2018-02-20T21:39:17.077Z,-0.30
2018-02-20T21:41:45.244Z,-0.30
2018-02-20T21:44:12.768Z,-0.30
2018-02-20T21:46:40.332Z,-0.30
2018-02-20T21:49:07.881Z,-0.30
2018-02-20T21:51:35.429Z,-0.30
2018-02-20T21:54:03.747Z,-0.30
2018-02-20T21:56:31.310Z,-0.30
2018-02-20T21:58:59.000Z,-0.30
2018-02-20T22:01:26.617Z,-0.30
2018-02-20T22:03:54.665Z,-0.30
2018-02-20T22:06:27.255Z,-0.30
2018-02-20T22:08:55.501Z,-0.40
2018-02-20T22:11:23.920Z,-0.70
2018-02-20T22:13:51.717Z,-0.70
2018-02-20T22:16:19.524Z,-0.90
2018-02-20T22:18:48.151Z,-1.10
2018-02-20T22:21:17.557Z,-1.40
2018-02-20T22:23:45.150Z,-1.40
2018-02-20T22:26:12.692Z,-1.60
2018-02-20T22:28:40.247Z,-1.80
2018-02-20T22:31:07.779Z,-1.90
2018-02-20T22:33:35.366Z,-2.20
2018-02-20T22:36:02.888Z,-2.30
2018-02-20T22:38:30.446Z,-2.20
2018-02-20T22:40:59.058Z,-1.60
2018-02-20T22:43:26.823Z,-1.60
2018-02-20T22:45:54.590Z,-1.40
2018-02-20T22:48:22.645Z,-1.30
2018-02-20T22:50:51.285Z,-1.30
2018-02-20T22:53:19.424Z,-1.20
2018-02-20T22:55:48.270Z,-1.50
2018-02-20T22:58:17.718Z,-1.60
2018-02-20T23:00:46.276Z,-1.50
2018-02-20T23:03:13.844Z,-1.60
2018-02-20T23:05:41.384Z,-1.50
2018-02-20T23:08:09.676Z,-1.40
2018-02-20T23:10:37.232Z,-1.40
2018-02-20T23:13:04.777Z,-1.50
2018-02-20T23:15:33.075Z,-1.10
2018-02-20T23:18:00.750Z,-1.20
2018-02-20T23:20:28.366Z,-1.20
2018-02-20T23:22:56.083Z,-1.30
2018-02-20T23:25:23.845Z,-1.40
2018-02-20T23:27:51.592Z,-1.40
2018-02-20T23:30:19.717Z,-1.50
2018-02-20T23:32:48.489Z,-1.70
2018-02-20T23:35:17.471Z,-1.70
2018-02-20T23:37:45.047Z,-1.70
2018-02-20T23:40:12.586Z,-1.60
2018-02-20T23:42:40.133Z,-1.50
2018-02-20T23:45:07.652Z,-1.50
2018-02-20T23:47:35.242Z,-1.50
2018-02-20T23:50:02.832Z,-1.40
2018-02-20T23:52:30.435Z,-1.30
2018-02-20T23:54:58.387Z,-1.30
2018-02-20T23:57:26.221Z,-1.30
2018-02-20T23:59:54.192Z,-1.40
